Time;durP1;ratioP1;P1;durP2;ratioP2;P2;SDS_P1;SDS_P2;PMS_P1;PMS_P2;Temp;Humidity;BMP_temperature;BMP_pressure;BME280_temperature;BME280_humidity;BME280_pressure;Samples;Min_cycle;Max_cycle;Signal;HPM_P1;HPM_P2
2023/08/05 00:01:01;;;;;;;2.58;1.60;;;19.10;94.10;;;;;;5078662;28;20023;-82
2023/08/05 00:03:26;;;;;;;4.60;1.73;;;19.10;94.10;;;;;;5066128;28;20078;-83
2023/08/05 00:05:52;;;;;;;2.38;1.67;;;19.10;94.10;;;;;;5069104;28;20037;-83
2023/08/05 00:08:18;;;;;;;3.05;1.85;;;19.10;94.10;;;;;;5066792;28;20032;-82
2023/08/05 00:10:44;;;;;;;3.42;1.95;;;19.10;94.10;;;;;;5072581;28;20027;-82
2023/08/05 00:13:11;;;;;;;3.17;1.70;;;19.10;94.10;;;;;;5066713;28;20381;-82
2023/08/05 00:15:37;;;;;;;5.47;2.60;;;19.10;94.10;;;;;;5071220;28;20025;-83
2023/08/05 00:18:03;;;;;;;7.80;2.35;;;19.10;94.10;;;;;;5075179;28;20031;-83
2023/08/05 00:20:29;;;;;;;4.43;1.83;;;19.10;94.10;;;;;;5076331;28;20465;-83
2023/08/05 00:22:54;;;;;;;2.45;1.83;;;19.10;94.10;;;;;;5099324;27;20031;-83
2023/08/05 00:25:20;;;;;;;3.45;1.80;;;19.10;94.10;;;;;;5066264;28;20021;-83
2023/08/05 00:27:46;;;;;;;3.97;2.30;;;19.10;94.10;;;;;;5070939;28;20028;-83
2023/08/05 00:30:11;;;;;;;9.20;2.20;;;19.10;94.10;;;;;;5066149;28;20025;-83
2023/08/05 00:32:37;;;;;;;3.92;2.22;;;19.10;94.10;;;;;;5067855;28;20020;-82
2023/08/05 00:35:07;;;;;;;6.28;1.90;;;19.10;94.10;;;;;;5060497;28;20120;-83
2023/08/05 00:37:34;;;;;;;3.55;1.83;;;19.10;94.10;;;;;;5062656;28;20465;-82
2023/08/05 00:40:01;;;;;;;2.92;1.98;;;19.10;94.10;;;;;;5059322;28;20049;-82
2023/08/05 00:42:27;;;;;;;9.15;2.80;;;19.10;94.10;;;;;;5067499;28;20086;-82
2023/08/05 00:44:52;;;;;;;3.97;2.70;;;19.10;94.10;;;;;;5071623;28;20016;-83
2023/08/05 00:47:19;;;;;;;5.45;2.85;;;19.10;94.10;;;;;;5065876;28;20358;-83
2023/08/05 00:49:47;;;;;;;7.80;3.08;;;19.10;94.10;;;;;;5072239;28;20031;-82
2023/08/05 00:52:17;;;;;;;5.10;2.13;;;19.10;94.10;;;;;;5059405;28;20375;-83
2023/08/05 00:54:43;;;;;;;4.65;2.60;;;19.10;94.10;;;;;;5071898;28;20024;-82
2023/08/05 00:57:13;;;;;;;4.80;2.80;;;19.10;94.10;;;;;;5060238;28;20028;-82
2023/08/05 00:59:39;;;;;;;6.88;3.03;;;19.10;94.10;;;;;;5074154;28;20016;-83
2023/08/05 01:02:06;;;;;;;4.70;2.88;;;19.10;94.10;;;;;;5067437;28;20476;-83
2023/08/05 01:04:32;;;;;;;4.57;3.10;;;19.10;94.10;;;;;;5069338;28;20112;-83
2023/08/05 01:06:59;;;;;;;5.18;2.63;;;19.10;94.10;;;;;;5061575;28;20017;-83
2023/08/05 01:09:25;;;;;;;5.18;2.72;;;19.10;94.10;;;;;;5065754;28;20035;-83
2023/08/05 01:11:50;;;;;;;4.10;2.80;;;19.10;94.10;;;;;;5063627;28;20020;-82
2023/08/05 01:14:17;;;;;;;5.47;3.25;;;19.10;94.10;;;;;;5073325;28;20037;-83
2023/08/05 01:16:42;;;;;;;7.85;2.67;;;19.10;94.10;;;;;;5077774;28;20086;-83
2023/08/05 01:19:23;;;;;;;7.90;3.10;;;19.10;94.10;;;;;;5063030;28;20029;-82
2023/08/05 01:22:01;;;;;;;7.93;3.25;;;19.10;94.10;;;;;;5066629;28;20481;-83
2023/08/05 01:24:55;;;;;;;7.57;3.30;;;19.10;94.10;;;;;;5066200;28;20021;-83
2023/08/05 01:27:23;;;;;;;4.90;3.17;;;19.10;94.10;;;;;;5034303;28;21331;-83
2023/08/05 01:29:49;;;;;;;10.65;4.72;;;19.10;94.10;;;;;;5072715;28;20036;-82
2023/08/05 01:32:17;;;;;;;7.15;3.78;;;19.10;94.10;;;;;;5067823;28;20014;-82
2023/08/05 01:34:43;;;;;;;9.88;3.95;;;19.10;94.10;;;;;;5063170;28;20037;-82
2023/08/05 01:37:09;;;;;;;7.47;4.18;;;19.10;94.10;;;;;;5069214;28;20025;-83
2023/08/05 01:39:35;;;;;;;13.02;4.22;;;19.10;94.10;;;;;;5066982;28;20055;-83
2023/08/05 01:42:00;;;;;;;7.80;4.28;;;19.10;94.10;;;;;;5064164;28;20112;-84
2023/08/05 01:44:26;;;;;;;8.43;5.20;;;19.10;94.10;;;;;;5073813;28;20025;-84
2023/08/05 01:46:51;;;;;;;8.90;5.05;;;19.20;94.20;;;;;;5069991;28;20034;-83
2023/08/05 01:49:17;;;;;;;7.50;5.03;;;19.10;94.10;;;;;;5064040;28;20363;-84
2023/08/05 01:51:43;;;;;;;9.13;5.20;;;19.10;94.20;;;;;;5074020;28;20029;-83
2023/08/05 01:54:08;;;;;;;7.72;4.63;;;19.10;94.20;;;;;;5062446;28;20107;-83
2023/08/05 01:56:34;;;;;;;9.05;5.15;;;19.00;94.10;;;;;;5102282;28;20014;-83
2023/08/05 01:59:00;;;;;;;10.77;4.90;;;19.00;94.20;;;;;;5074849;28;20040;-82
2023/08/05 02:01:45;;;;;;;9.23;5.30;;;19.00;94.20;;;;;;5071830;28;20588;-84
2023/08/05 02:04:11;;;;;;;10.68;5.72;;;19.00;94.20;;;;;;5074879;28;20085;-85
2023/08/05 02:06:38;;;;;;;11.30;5.18;;;19.00;94.20;;;;;;5072269;28;20111;-83
2023/08/05 02:09:03;;;;;;;9.45;4.88;;;19.00;94.20;;;;;;5068297;28;20055;-83
2023/08/05 02:11:29;;;;;;;9.15;4.95;;;19.00;94.20;;;;;;5071430;28;20056;-83
2023/08/05 02:13:55;;;;;;;6.05;4.45;;;19.10;94.20;;;;;;5078282;28;20039;-83
2023/08/05 02:16:20;;;;;;;7.78;4.07;;;19.00;94.20;;;;;;5068403;28;20088;-83
2023/08/05 02:18:46;;;;;;;9.00;5.00;;;19.10;94.30;;;;;;5076564;28;20032;-82
2023/08/05 02:21:12;;;;;;;7.28;5.05;;;19.00;94.20;;;;;;5066617;28;20024;-83
2023/08/05 02:23:37;;;;;;;10.48;4.65;;;19.00;94.20;;;;;;5075107;28;20066;-83
2023/08/05 02:26:03;;;;;;;7.88;5.13;;;19.00;94.20;;;;;;5071398;28;20025;-82
2023/08/05 02:28:29;;;;;;;11.45;5.70;;;19.00;94.20;;;;;;5069588;28;20032;-83
2023/08/05 02:30:54;;;;;;;10.95;4.93;;;19.00;94.30;;;;;;5072083;28;20377;-83
2023/08/05 02:33:20;;;;;;;12.88;5.30;;;19.00;94.20;;;;;;5067237;28;20100;-82
2023/08/05 02:35:46;;;;;;;11.32;5.30;;;19.00;94.20;;;;;;5071418;28;20473;-83
2023/08/05 02:38:12;;;;;;;11.43;5.20;;;19.10;94.20;;;;;;5068900;28;20016;-82
2023/08/05 02:40:38;;;;;;;13.25;4.60;;;19.10;94.30;;;;;;5069239;28;20036;-83
2023/08/05 02:43:03;;;;;;;11.57;5.35;;;19.10;94.20;;;;;;5103465;27;20537;-82
2023/08/05 02:45:29;;;;;;;9.27;5.50;;;19.10;94.20;;;;;;5070984;28;20084;-83
2023/08/05 02:47:55;;;;;;;11.77;5.82;;;19.00;94.60;;;;;;5068376;28;20215;-83
2023/08/05 02:50:20;;;;;;;10.90;4.82;;;19.10;94.20;;;;;;5065743;28;20012;-84
2023/08/05 02:52:46;;;;;;;7.85;4.72;;;19.10;94.20;;;;;;5071906;28;20024;-82
2023/08/05 02:55:11;;;;;;;9.38;5.35;;;19.00;94.20;;;;;;5066566;28;20037;-82
2023/08/05 02:57:37;;;;;;;15.38;4.80;;;19.00;94.20;;;;;;5071189;28;20025;-81
2023/08/05 03:00:03;;;;;;;9.70;4.82;;;19.00;94.20;;;;;;5069624;28;20103;-81
2023/08/05 03:02:30;;;;;;;12.50;4.80;;;19.00;94.20;;;;;;5065566;28;20017;-83
2023/08/05 03:04:55;;;;;;;8.80;5.20;;;19.10;94.20;;;;;;5062973;28;20021;-82
2023/08/05 03:07:21;;;;;;;6.68;4.35;;;19.00;94.20;;;;;;5066157;28;20017;-82
2023/08/05 03:09:47;;;;;;;9.52;4.85;;;19.00;94.20;;;;;;5070404;28;20027;-83
2023/08/05 03:12:13;;;;;;;10.75;5.68;;;19.00;94.20;;;;;;5073453;28;20419;-82
2023/08/05 03:14:38;;;;;;;8.93;4.65;;;19.00;94.20;;;;;;5067432;28;20112;-82
2023/08/05 03:17:04;;;;;;;9.32;5.05;;;19.10;94.20;;;;;;5068644;28;20031;-83
2023/08/05 03:19:30;;;;;;;9.15;5.20;;;19.00;94.10;;;;;;5065039;28;20103;-82
2023/08/05 03:21:55;;;;;;;9.10;5.32;;;19.00;94.10;;;;;;5063236;28;20484;-83
2023/08/05 03:24:21;;;;;;;11.38;5.63;;;19.00;94.10;;;;;;5067296;28;20013;-84
2023/08/05 03:26:47;;;;;;;9.98;5.10;;;19.00;94.10;;;;;;5072270;28;20027;-82
2023/08/05 03:29:12;;;;;;;8.98;5.13;;;19.10;94.10;;;;;;5072400;28;20516;-82
2023/08/05 03:31:38;;;;;;;7.93;5.18;;;19.00;94.10;;;;;;5065762;28;20021;-83
2023/08/05 03:34:03;;;;;;;9.77;4.90;;;18.90;94.10;;;;;;5066199;28;20025;-82
2023/08/05 03:36:29;;;;;;;10.90;5.15;;;19.00;94.10;;;;;;5066368;28;20024;-82
2023/08/05 03:38:55;;;;;;;10.98;5.22;;;19.00;94.10;;;;;;5070456;28;20025;-82
2023/08/05 03:41:21;;;;;;;9.00;5.15;;;19.00;94.10;;;;;;5077389;28;20512;-81
2023/08/05 03:43:46;;;;;;;11.73;5.65;;;19.00;94.10;;;;;;5068329;28;20132;-81
2023/08/05 03:46:12;;;;;;;15.80;5.72;;;19.00;94.40;;;;;;5068348;28;20035;-82
2023/08/05 03:48:37;;;;;;;9.13;5.55;;;19.00;94.10;;;;;;5065763;28;20029;-82
2023/08/05 03:51:03;;;;;;;12.27;5.20;;;19.00;94.10;;;;;;5064849;28;20025;-82
2023/08/05 03:53:29;;;;;;;8.77;5.70;;;19.00;94.00;;;;;;5064036;28;20021;-81
2023/08/05 03:55:54;;;;;;;15.27;5.75;;;19.00;94.00;;;;;;5068054;28;20478;-82
2023/08/05 03:58:20;;;;;;;10.70;5.88;;;19.00;94.00;;;;;;5072840;28;20023;-82
2023/08/05 04:00:46;;;;;;;10.10;5.32;;;19.00;94.10;;;;;;5073176;28;20051;-83
2023/08/05 04:03:11;;;;;;;11.77;5.63;;;19.00;94.00;;;;;;5063454;28;20028;-82
2023/08/05 04:05:37;;;;;;;9.60;4.55;;;19.00;94.00;;;;;;5068003;28;20024;-82
2023/08/05 04:08:03;;;;;;;8.95;5.40;;;19.00;94.00;;;;;;5063367;28;20031;-82
2023/08/05 04:10:30;;;;;;;10.02;5.90;;;19.00;94.00;;;;;;5064140;28;20016;-82
2023/08/05 04:12:56;;;;;;;15.20;6.00;;;19.00;94.00;;;;;;5068877;28;20040;-82
2023/08/05 04:15:23;;;;;;;13.98;6.20;;;19.00;94.00;;;;;;5066671;28;20033;-81
2023/08/05 04:17:50;;;;;;;15.10;6.38;;;19.00;94.00;;;;;;5071712;28;20028;-82
2023/08/05 04:20:17;;;;;;;12.88;5.93;;;19.00;94.00;;;;;;5069031;28;20029;-83
2023/08/05 04:22:48;;;;;;;9.88;6.03;;;19.00;94.00;;;;;;5064993;28;20036;-84
2023/08/05 04:25:13;;;;;;;;;;;19.00;94.00;;;;;;5069868;28;20047;-82
2023/08/05 04:27:39;;;;;;;11.27;6.00;;;19.00;94.00;;;;;;5071710;28;20349;-82
2023/08/05 04:30:07;;;;;;;11.40;5.43;;;19.00;94.00;;;;;;5071138;28;20047;-83
2023/08/05 04:32:32;;;;;;;11.95;6.47;;;19.00;94.00;;;;;;5065505;28;20562;-82
2023/08/05 04:34:58;;;;;;;11.85;5.45;;;19.00;94.00;;;;;;5066582;28;20037;-82
2023/08/05 04:37:23;;;;;;;17.17;6.22;;;19.00;94.00;;;;;;5060106;28;20393;-83
2023/08/05 04:39:49;;;;;;;12.27;6.32;;;19.00;94.00;;;;;;5067757;28;20032;-82
2023/08/05 04:42:15;;;;;;;19.45;6.28;;;19.00;94.00;;;;;;5068949;28;20439;-83
2023/08/05 04:44:41;;;;;;;14.48;6.35;;;19.00;94.30;;;;;;5078693;28;20381;-83
2023/08/05 04:47:08;;;;;;;12.23;5.88;;;19.00;93.90;;;;;;5072145;28;20104;-82
2023/08/05 04:49:35;;;;;;;8.73;5.85;;;19.00;93.90;;;;;;5064571;28;20477;-81
2023/08/05 04:52:05;;;;;;;15.10;5.25;;;19.00;93.90;;;;;;5063153;28;20028;-82
2023/08/05 04:54:32;;;;;;;13.38;5.80;;;19.00;93.90;;;;;;5067498;28;20067;-82
2023/08/05 04:56:58;;;;;;;18.10;5.63;;;19.00;93.90;;;;;;5068561;28;20020;-82
2023/08/05 04:59:23;;;;;;;14.10;5.90;;;19.00;93.90;;;;;;5068121;28;20020;-82
2023/08/05 05:01:49;;;;;;;10.10;5.57;;;19.00;93.90;;;;;;5074642;28;20440;-81
2023/08/05 05:04:14;;;;;;;11.70;5.40;;;19.00;93.90;;;;;;5068979;28;20025;-82
2023/08/05 05:06:40;;;;;;;10.60;5.43;;;19.00;93.90;;;;;;5059540;28;20082;-82
2023/08/05 05:09:06;;;;;;;9.27;5.20;;;19.00;93.90;;;;;;5066684;28;20056;-82
2023/08/05 05:11:31;;;;;;;10.68;5.47;;;19.00;93.90;;;;;;5068356;28;20012;-82
2023/08/05 05:13:57;;;;;;;13.38;5.25;;;19.00;93.90;;;;;;5064347;28;20026;-82
2023/08/05 05:16:23;;;;;;;7.65;4.72;;;19.00;93.90;;;;;;5070151;28;20465;-81
2023/08/05 05:18:48;;;;;;;9.27;5.22;;;19.00;94.00;;;;;;5068416;28;20036;-82
2023/08/05 05:21:14;;;;;;;8.98;4.45;;;19.00;93.90;;;;;;5069322;28;20108;-81
2023/08/05 05:23:40;;;;;;;9.20;4.97;;;19.00;93.90;;;;;;5061612;28;20025;-82
2023/08/05 05:26:06;;;;;;;11.88;5.28;;;19.00;93.90;;;;;;5070127;28;20046;-82
2023/08/05 05:28:32;;;;;;;9.80;5.18;;;19.00;93.90;;;;;;5066960;28;20484;-82
2023/08/05 05:31:02;;;;;;;9.10;5.00;;;19.00;93.90;;;;;;5064638;28;20029;-82
2023/08/05 05:33:27;;;;;;;;;;;19.00;93.90;;;;;;5073069;28;20058;-82
2023/08/05 05:35:53;;;;;;;9.98;5.45;;;19.00;93.90;;;;;;5064994;28;20361;-83
2023/08/05 05:38:18;;;;;;;11.02;5.35;;;19.00;93.90;;;;;;5069912;28;20025;-82
2023/08/05 05:40:45;;;;;;;12.18;5.45;;;19.00;93.90;;;;;;5071449;28;20021;-83
2023/08/05 05:43:10;;;;;;;9.10;5.22;;;19.00;93.90;;;;;;5069860;28;20044;-82
2023/08/05 05:45:39;;;;;;;11.13;6.30;;;19.00;93.90;;;;;;5063051;28;20052;-82
2023/08/05 05:48:06;;;;;;;10.87;5.40;;;19.00;93.90;;;;;;5064139;28;20120;-81
2023/08/05 05:50:31;;;;;;;11.02;5.55;;;19.00;93.90;;;;;;5066243;28;20550;-82
2023/08/05 05:52:57;;;;;;;8.52;5.55;;;19.00;93.90;;;;;;5102528;28;20104;-82
2023/08/05 05:55:23;;;;;;;8.57;5.70;;;19.00;93.90;;;;;;5072891;28;20033;-82
2023/08/05 05:57:48;;;;;;;8.88;5.40;;;19.00;94.00;;;;;;5066757;28;20040;-81
2023/08/05 06:00:14;;;;;;;11.50;5.10;;;19.00;93.90;;;;;;5064341;28;20083;-81
2023/08/05 06:02:40;;;;;;;10.50;5.70;;;19.00;93.90;;;;;;5060091;28;20025;-81
2023/08/05 06:05:07;;;;;;;10.13;5.47;;;19.00;93.90;;;;;;5063668;28;20019;-81
2023/08/05 06:07:33;;;;;;;10.18;5.57;;;19.00;93.90;;;;;;5069472;28;20111;-82
2023/08/05 06:09:58;;;;;;;12.32;5.75;;;19.00;93.90;;;;;;5072994;28;20056;-82
2023/08/05 06:12:27;;;;;;;9.32;5.20;;;19.00;93.90;;;;;;5071297;28;20491;-82
2023/08/05 06:14:53;;;;;;;9.75;5.40;;;19.00;93.90;;;;;;5069355;28;20032;-83
2023/08/05 06:17:19;;;;;;;9.60;5.13;;;19.00;93.90;;;;;;5096476;28;20027;-83
2023/08/05 06:19:44;;;;;;;12.60;5.22;;;19.00;93.90;;;;;;5067302;28;20021;-83
2023/08/05 06:22:10;;;;;;;7.30;4.63;;;19.00;93.90;;;;;;5070512;28;20465;-82
2023/08/05 06:24:36;;;;;;;9.27;5.63;;;19.00;93.90;;;;;;5094953;28;20070;-83
2023/08/05 06:27:01;;;;;;;8.70;5.88;;;19.00;93.90;;;;;;5069266;28;20047;-82
2023/08/05 06:29:27;;;;;;;9.45;5.53;;;19.00;93.90;;;;;;5066009;28;20029;-83
2023/08/05 06:31:53;;;;;;;9.30;5.20;;;19.00;93.90;;;;;;5067886;28;20024;-83
2023/08/05 06:34:21;;;;;;;11.45;5.47;;;19.00;93.90;;;;;;5061343;28;20033;-84
2023/08/05 06:36:46;;;;;;;11.80;6.32;;;19.00;93.90;;;;;;5054848;28;20033;-84
2023/08/05 06:39:12;;;;;;;10.48;5.28;;;19.00;94.00;;;;;;5073246;28;20031;-83
2023/08/05 06:41:37;;;;;;;9.27;6.25;;;18.90;93.90;;;;;;5074345;28;20027;-82
2023/08/05 06:44:03;;;;;;;12.07;6.00;;;19.00;94.00;;;;;;5069661;28;20025;-82
2023/08/05 06:46:29;;;;;;;9.63;5.47;;;19.00;93.90;;;;;;5064532;28;20529;-82
2023/08/05 06:48:54;;;;;;;8.02;4.95;;;19.00;94.00;;;;;;5062318;28;20363;-81
2023/08/05 06:51:20;;;;;;;11.30;6.10;;;19.00;93.90;;;;;;5071207;28;20025;-84
2023/08/05 06:53:45;;;;;;;11.23;5.45;;;19.00;94.00;;;;;;5073490;28;20024;-82
2023/08/05 06:56:11;;;;;;;10.98;6.03;;;19.00;94.00;;;;;;5075997;28;20020;-82
2023/08/05 06:58:37;;;;;;;11.68;6.03;;;19.00;94.00;;;;;;5073210;28;20035;-82
2023/08/05 07:01:02;;;;;;;8.82;5.28;;;18.90;93.90;;;;;;5067879;28;20025;-84
2023/08/05 07:03:28;;;;;;;13.70;5.25;;;19.00;94.00;;;;;;5070698;28;20031;-82
2023/08/05 07:05:55;;;;;;;10.82;5.35;;;19.00;94.00;;;;;;5056985;28;20029;-82
2023/08/05 07:08:25;;;;;;;8.07;4.20;;;18.90;93.90;;;;;;5061516;28;20569;-82
2023/08/05 07:10:57;;;;;;;;;;;18.90;93.90;;;;;;5076736;28;20071;-83
2023/08/05 07:13:24;;;;;;;15.93;4.97;;;18.90;94.00;;;;;;5076825;28;19909;-82
2023/08/05 07:15:50;;;;;;;9.35;4.95;;;19.00;94.00;;;;;;5073263;28;20083;-83
2023/08/05 07:18:16;;;;;;;9.05;5.20;;;19.00;94.00;;;;;;5063965;28;20381;-84
2023/08/05 07:20:42;;;;;;;7.70;4.82;;;18.90;94.30;;;;;;5060483;28;20538;-83
2023/08/05 07:23:07;;;;;;;10.15;5.68;;;19.00;94.00;;;;;;5061301;28;20446;-82
2023/08/05 07:25:33;;;;;;;8.75;4.78;;;19.00;93.90;;;;;;5070868;28;20032;-84
2023/08/05 07:27:59;;;;;;;11.25;5.35;;;19.00;94.00;;;;;;5075353;28;20040;-82
2023/08/05 07:30:24;;;;;;;15.10;5.50;;;19.00;94.00;;;;;;5066808;28;20016;-83
2023/08/05 07:32:50;;;;;;;8.20;4.78;;;18.90;93.90;;;;;;5068018;28;20029;-82
2023/08/05 07:35:15;;;;;;;9.45;4.57;;;19.00;94.00;;;;;;5070689;28;20064;-83
2023/08/05 07:37:46;;;;;;;12.85;5.35;;;19.00;94.00;;;;;;5061470;28;20047;-82
2023/08/05 07:40:12;;;;;;;7.78;4.50;;;19.00;94.00;;;;;;5070811;28;20020;-83
2023/08/05 07:42:42;;;;;;;8.63;4.63;;;19.00;94.00;;;;;;5072170;28;20025;-84
2023/08/05 07:45:11;;;;;;;7.22;4.38;;;19.00;94.00;;;;;;5074015;28;20370;-82
2023/08/05 07:47:41;;;;;;;10.43;4.43;;;19.00;94.00;;;;;;5068530;28;20428;-84
2023/08/05 07:50:10;;;;;;;8.10;4.78;;;19.00;94.00;;;;;;5071464;28;20060;-83
2023/08/05 07:52:36;;;;;;;6.75;4.68;;;19.00;94.00;;;;;;5067907;28;20025;-82
2023/08/05 07:55:03;;;;;;;7.50;4.00;;;19.00;94.00;;;;;;5073506;28;20047;-82
2023/08/05 07:57:29;;;;;;;5.68;4.50;;;19.00;93.90;;;;;;5069071;28;20530;-81
2023/08/05 07:59:56;;;;;;;9.15;4.85;;;19.00;93.90;;;;;;5076275;28;20012;-83
2023/08/05 08:02:22;;;;;;;8.88;4.53;;;19.00;94.30;;;;;;5073689;28;20030;-83
2023/08/05 08:04:49;;;;;;;17.00;4.53;;;19.00;93.90;;;;;;5064511;28;20016;-82
2023/08/05 08:07:14;;;;;;;10.10;4.97;;;19.00;93.90;;;;;;5067716;28;20024;-81
2023/08/05 08:09:40;;;;;;;7.63;4.80;;;19.00;93.90;;;;;;5071767;28;20051;-83
2023/08/05 08:12:06;;;;;;;7.05;4.80;;;19.00;93.90;;;;;;5067863;28;20021;-85
2023/08/05 08:14:32;;;;;;;7.13;4.43;;;19.00;93.90;;;;;;5070220;28;20037;-83
2023/08/05 08:16:59;;;;;;;9.13;4.97;;;19.00;93.90;;;;;;5068806;28;20027;-82
2023/08/05 08:19:24;;;;;;;6.47;4.82;;;19.00;94.20;;;;;;5063935;28;20024;-82
2023/08/05 08:21:50;;;;;;;7.45;4.75;;;19.10;93.90;;;;;;5066553;28;20023;-82
2023/08/05 08:24:16;;;;;;;9.18;4.85;;;19.10;93.90;;;;;;5070576;28;20028;-83
2023/08/05 08:26:41;;;;;;;9.18;4.60;;;19.00;93.90;;;;;;5068948;28;20032;-82
2023/08/05 08:29:07;;;;;;;7.70;4.20;;;19.10;93.90;;;;;;5063282;28;20028;-82
2023/08/05 08:31:33;;;;;;;10.57;4.75;;;19.00;93.90;;;;;;5070116;28;20021;-82
2023/08/05 08:33:59;;;;;;;10.88;4.18;;;19.00;94.00;;;;;;5068123;28;20017;-84
2023/08/05 08:36:25;;;;;;;6.85;4.07;;;19.00;93.90;;;;;;5069397;28;20016;-82
2023/08/05 08:38:51;;;;;;;6.45;3.65;;;19.00;93.90;;;;;;5075172;28;20020;-82
2023/08/05 08:41:16;;;;;;;5.97;3.25;;;19.00;94.00;;;;;;5065018;28;20029;-82
2023/08/05 08:43:43;;;;;;;4.47;3.10;;;19.00;93.90;;;;;;5067374;28;20044;-82
2023/08/05 08:46:10;;;;;;;5.10;3.55;;;19.00;93.90;;;;;;5093773;27;20520;-83
2023/08/05 08:48:38;;;;;;;5.82;3.70;;;19.00;93.90;;;;;;5068019;28;20127;-82
2023/08/05 08:51:05;;;;;;;4.63;3.15;;;19.00;93.90;;;;;;5100733;28;20032;-82
2023/08/05 08:53:34;;;;;;;6.43;2.85;;;19.00;93.90;;;;;;5102197;27;20020;-82
2023/08/05 08:56:00;;;;;;;7.88;3.42;;;19.00;93.90;;;;;;5069781;28;20079;-83
2023/08/05 08:58:25;;;;;;;11.23;4.15;;;19.00;93.90;;;;;;5093661;27;20068;-82
2023/08/05 09:00:52;;;;;;;4.05;3.08;;;19.10;94.00;;;;;;5059576;28;20056;-83
2023/08/05 09:03:19;;;;;;;6.47;3.97;;;19.00;93.90;;;;;;5068654;28;20099;-82
2023/08/05 09:09:04;;;;;;;8.70;4.30;;;19.00;93.90;;;;;;5102837;22;20510;-91
2023/08/05 09:11:29;;;;;;;9.38;3.33;;;19.00;94.00;;;;;;5002875;28;20324;-92
2023/08/05 09:13:55;;;;;;;5.40;3.58;;;19.00;93.90;;;;;;4992868;28;20482;-91
2023/08/05 09:16:21;;;;;;;4.85;2.95;;;19.00;93.90;;;;;;4988759;28;20030;-91
2023/08/05 09:18:54;;;;;;;5.03;3.50;;;19.10;94.30;;;;;;4992421;28;20042;-92
2023/08/05 09:21:24;;;;;;;5.18;3.53;;;19.00;93.90;;;;;;4988097;28;20050;-92
2023/08/05 09:23:49;;;;;;;5.00;3.47;;;19.00;93.90;;;;;;5004823;28;20026;-91
2023/08/05 09:26:26;;;;;;;6.15;3.42;;;19.00;93.90;;;;;;4992340;28;20030;-92
2023/08/05 09:28:52;;;;;;;7.25;3.33;;;19.10;93.90;;;;;;4988417;28;20450;-91
2023/08/05 09:31:18;;;;;;;10.73;3.70;;;19.10;93.90;;;;;;4991489;28;20065;-91
2023/08/05 09:33:44;;;;;;;11.85;3.97;;;19.00;93.90;;;;;;4989898;28;20030;-89
2023/08/05 09:36:11;;;;;;;5.38;3.47;;;19.00;93.90;;;;;;4989792;28;20070;-93
2023/08/05 09:38:40;;;;;;;7.78;3.97;;;19.00;94.00;;;;;;5004139;28;20021;-91
2023/08/05 09:41:07;;;;;;;4.63;3.30;;;19.60;94.10;;;;;;4986868;28;20034;-90
2023/08/05 09:43:35;;;;;;;3.67;2.85;;;19.00;94.00;;;;;;5004869;28;20054;-91
2023/08/05 09:46:04;;;;;;;6.35;3.13;;;19.10;94.00;;;;;;4988420;28;20034;-91
2023/08/05 09:48:41;;;;;;;6.57;3.20;;;19.10;94.00;;;;;;4989311;28;20113;-91
2023/08/05 09:51:07;;;;;;;6.97;2.80;;;19.80;94.20;;;;;;4990137;28;20455;-82
2023/08/05 09:53:37;;;;;;;7.05;3.38;;;19.20;94.00;;;;;;5002184;28;20049;-89
2023/08/05 09:56:06;;;;;;;4.47;2.70;;;19.10;94.00;;;;;;4983980;28;20129;-90
2023/08/05 09:58:37;;;;;;;4.38;3.17;;;19.10;94.00;;;;;;4988675;28;20041;-91
2023/08/05 10:01:08;;;;;;;4.80;3.20;;;19.10;94.00;;;;;;4988832;28;20030;-91
2023/08/05 10:03:40;;;;;;;4.60;2.97;;;19.10;94.00;;;;;;4986197;28;20034;-91
2023/08/05 10:06:11;;;;;;;6.15;2.97;;;19.10;94.00;;;;;;4988638;28;20026;-89
2023/08/05 10:08:40;;;;;;;5.47;3.25;;;19.10;94.00;;;;;;5005620;28;20038;-91
2023/08/05 10:11:07;;;;;;;12.07;3.50;;;19.60;94.10;;;;;;5005768;28;20387;-91
2023/08/05 10:13:38;;;;;;;4.40;3.13;;;19.10;94.00;;;;;;5002932;28;20077;-89
2023/08/05 10:16:06;;;;;;;4.15;2.65;;;19.10;94.00;;;;;;4987984;28;20042;-92
2023/08/05 10:18:34;;;;;;;4.07;3.13;;;19.10;94.00;;;;;;4988091;28;20061;-90
2023/08/05 10:21:04;;;;;;;5.22;2.60;;;19.10;93.90;;;;;;4992528;28;20629;-92
2023/08/05 10:23:33;;;;;;;3.30;2.47;;;19.10;93.90;;;;;;4992240;28;20025;-89
2023/08/05 10:26:07;;;;;;;7.65;3.25;;;19.10;93.60;;;;;;4992460;28;20097;-88
2023/08/05 10:28:39;;;;;;;6.93;2.90;;;19.00;93.30;;;;;;4990816;28;20027;-91
2023/08/05 10:31:06;;;;;;;3.08;2.40;;;19.10;93.50;;;;;;4989702;28;20512;-84
2023/08/05 10:33:52;;;;;;;3.63;2.80;;;19.00;93.40;;;;;;4988617;28;20026;-87
2023/08/05 10:36:17;;;;;;;3.13;2.17;;;19.10;93.40;;;;;;4990467;28;20428;-86
2023/08/05 10:38:43;;;;;;;4.55;2.30;;;19.00;93.30;;;;;;5007742;28;20034;-86
2023/08/05 10:41:10;;;;;;;4.22;2.47;;;19.00;93.20;;;;;;4990597;28;20030;-85
2023/08/05 10:43:38;;;;;;;5.40;2.22;;;19.00;93.30;;;;;;4992923;28;20029;-89
2023/08/05 10:46:06;;;;;;;3.80;2.30;;;19.00;93.00;;;;;;4991258;28;20125;-87
2023/08/05 10:48:47;;;;;;;4.22;2.67;;;19.00;93.20;;;;;;4981813;28;20027;-85
2023/08/05 10:51:20;;;;;;;3.38;2.00;;;18.90;93.00;;;;;;4988879;28;20049;-85
2023/08/05 10:53:55;;;;;;;3.78;2.38;;;19.80;93.20;;;;;;5005292;28;20061;-85
2023/08/05 10:56:32;;;;;;;3.80;2.28;;;19.00;92.90;;;;;;4978898;28;20049;-86
2023/08/05 10:59:01;;;;;;;3.85;2.35;;;18.90;92.70;;;;;;4990766;28;20023;-84
2023/08/05 11:01:56;;;;;;;3.40;2.00;;;19.00;92.80;;;;;;4991605;28;20421;-85
2023/08/05 11:04:31;;;;;;;7.00;2.40;;;19.00;92.60;;;;;;4987583;28;20026;-86
2023/08/05 11:07:00;;;;;;;4.65;2.15;;;19.00;92.10;;;;;;4990240;28;20045;-86
2023/08/05 11:09:27;;;;;;;2.72;2.00;;;19.00;92.20;;;;;;4988851;28;20034;-87
2023/08/05 11:11:53;;;;;;;4.57;2.42;;;19.00;91.90;;;;;;4991380;28;20027;-87
2023/08/05 11:14:19;;;;;;;9.10;2.33;;;19.00;92.20;;;;;;4990169;28;20030;-86
2023/08/05 11:16:48;;;;;;;5.18;2.40;;;19.70;92.30;;;;;;4990295;28;20034;-87
2023/08/05 11:19:17;;;;;;;4.10;2.22;;;19.10;92.20;;;;;;4991048;28;20046;-87
2023/08/05 11:21:46;;;;;;;5.22;2.53;;;19.10;92.00;;;;;;4999199;28;20543;-86
2023/08/05 11:24:18;;;;;;;7.28;2.50;;;19.10;92.30;;;;;;4990296;28;20026;-86
2023/08/05 11:26:46;;;;;;;3.25;2.15;;;19.10;92.10;;;;;;5007439;28;20030;-86
2023/08/05 11:29:13;;;;;;;7.18;2.58;;;19.20;92.00;;;;;;4989538;28;20058;-86
2023/08/05 11:31:50;;;;;;;3.35;2.45;;;19.20;92.00;;;;;;4988161;28;20463;-87
2023/08/05 11:34:22;;;;;;;6.82;2.30;;;19.30;92.00;;;;;;4986894;28;20558;-84
2023/08/05 11:36:57;;;;;;;4.65;1.90;;;19.20;91.40;;;;;;4989592;28;20026;-86
2023/08/05 11:39:26;;;;;;;2.88;2.28;;;19.20;91.60;;;;;;4987999;28;20026;-87
2023/08/05 11:41:52;;;;;;;3.70;1.85;;;19.20;91.30;;;;;;4989135;28;20077;-87
2023/08/05 11:44:19;;;;;;;2.20;2.00;;;19.20;90.80;;;;;;4984856;28;20110;-86
2023/08/05 11:46:45;;;;;;;2.38;1.88;;;19.10;90.80;;;;;;4998084;28;20057;-85
2023/08/05 11:49:14;;;;;;;3.50;2.10;;;19.10;90.90;;;;;;4988646;28;20565;-87
2023/08/05 11:51:46;;;;;;;2.90;2.03;;;19.10;91.00;;;;;;4987446;28;20030;-84
2023/08/05 11:54:12;;;;;;;4.00;2.15;;;19.10;90.80;;;;;;4984411;28;20034;-85
2023/08/05 11:56:37;;;;;;;4.10;2.03;;;19.10;91.10;;;;;;4988041;28;20027;-85
2023/08/05 11:59:03;;;;;;;2.55;2.25;;;19.10;91.30;;;;;;4993053;28;20034;-85
2023/08/05 12:01:29;;;;;;;2.45;1.98;;;19.10;91.40;;;;;;4988437;28;20026;-85
2023/08/05 12:03:57;;;;;;;2.97;2.13;;;19.10;91.60;;;;;;4987786;28;20113;-85
2023/08/05 12:06:26;;;;;;;2.83;2.17;;;19.10;91.90;;;;;;4988103;28;20490;-86
2023/08/05 12:08:59;;;;;;;4.15;2.20;;;19.10;91.80;;;;;;4989806;28;20034;-85
2023/08/05 12:11:25;;;;;;;3.13;2.30;;;19.10;91.70;;;;;;4990884;28;20030;-85
2023/08/05 12:13:51;;;;;;;4.47;2.25;;;19.10;91.60;;;;;;5002812;28;20026;-85
2023/08/05 12:16:17;;;;;;;3.15;1.90;;;19.10;91.70;;;;;;4986906;28;20037;-85
2023/08/05 12:18:44;;;;;;;3.50;1.95;;;19.10;91.80;;;;;;4999861;28;20027;-85
2023/08/05 12:21:10;;;;;;;8.38;2.33;;;19.10;91.80;;;;;;4985368;28;20027;-85
2023/08/05 12:23:40;;;;;;;2.22;1.70;;;19.10;91.70;;;;;;4990431;28;20113;-86
2023/08/05 12:26:09;;;;;;;3.28;2.10;;;19.10;91.60;;;;;;4988883;28;20046;-85
2023/08/05 12:28:36;;;;;;;2.78;2.00;;;19.10;91.60;;;;;;4990139;28;20042;-85
2023/08/05 12:31:03;;;;;;;6.70;2.38;;;19.10;91.60;;;;;;4990272;28;20065;-85
2023/08/05 12:33:28;;;;;;;4.50;2.10;;;19.10;91.40;;;;;;4986639;28;20022;-85
2023/08/05 12:35:54;;;;;;;2.80;2.03;;;19.10;91.20;;;;;;4990378;28;20042;-87
2023/08/05 12:38:21;;;;;;;3.00;1.65;;;19.20;91.50;;;;;;4986244;28;20050;-85
2023/08/05 12:40:46;;;;;;;1.73;1.60;;;19.20;91.30;;;;;;4987728;28;20088;-84
2023/08/05 12:43:12;;;;;;;2.67;2.15;;;19.10;91.40;;;;;;4987178;28;20029;-85
2023/08/05 12:45:38;;;;;;;3.30;2.40;;;19.10;91.60;;;;;;4987953;28;20054;-85
2023/08/05 12:48:04;;;;;;;4.70;2.10;;;19.10;91.70;;;;;;4989563;28;20089;-85